createdAt,value
2018-09-29T00:00:51.167Z,99.99
2018-09-29T00:01:51.160Z,99.99
2018-09-29T00:02:51.182Z,99.99
2018-09-29T00:03:51.181Z,99.99
2018-09-29T00:04:51.137Z,99.99
2018-09-29T00:05:51.160Z,99.99
2018-09-29T00:06:51.167Z,99.99
2018-09-29T00:07:51.157Z,99.99
2018-09-29T00:08:51.121Z,99.99
2018-09-29T00:09:51.159Z,99.99
2018-09-29T00:10:51.107Z,99.99
2018-09-29T00:11:51.122Z,99.99
2018-09-29T00:12:51.158Z,99.99
2018-09-29T00:13:51.090Z,99.99
2018-09-29T00:14:51.089Z,99.99
2018-09-29T00:15:51.109Z,99.99
2018-09-29T00:16:51.097Z,99.99
2018-09-29T00:17:51.118Z,99.99
2018-09-29T00:18:51.083Z,99.99
2018-09-29T00:19:51.088Z,99.99
2018-09-29T00:20:51.103Z,99.99
2018-09-29T00:21:51.061Z,99.99
2018-09-29T00:22:51.060Z,99.99
2018-09-29T00:23:51.056Z,99.99
2018-09-29T00:24:51.039Z,99.99
2018-09-29T00:25:51.038Z,99.99
2018-09-29T00:26:51.040Z,99.99
2018-09-29T00:27:51.054Z,99.99
2018-09-29T00:28:51.012Z,99.99
2018-09-29T00:29:51.021Z,99.99
2018-09-29T00:30:51.012Z,99.99
2018-09-29T00:31:51.001Z,99.99
2018-09-29T00:32:51.049Z,99.99
2018-09-29T00:33:50.994Z,99.99
2018-09-29T00:34:50.984Z,99.99
2018-09-29T00:35:51.001Z,99.99
2018-09-29T00:36:50.986Z,99.99
2018-09-29T00:37:51.004Z,99.99
2018-09-29T00:38:50.991Z,99.99
2018-09-29T00:39:50.988Z,99.99
2018-09-29T00:40:50.956Z,99.99
2018-09-29T00:41:50.946Z,99.99
2018-09-29T00:42:50.985Z,99.99
2018-09-29T00:43:50.934Z,99.99
2018-09-29T00:44:50.931Z,99.99
2018-09-29T00:45:50.931Z,99.99
2018-09-29T00:46:50.953Z,99.99
2018-09-29T00:47:50.950Z,99.99
2018-09-29T00:48:50.955Z,99.99
2018-09-29T00:49:50.935Z,99.99
2018-09-29T00:52:18.308Z,99.99
2018-09-29T00:53:18.255Z,99.99
2018-09-29T00:54:18.263Z,99.99
2018-09-29T00:55:18.243Z,99.99
2018-09-29T00:56:18.236Z,99.99
2018-09-29T00:57:18.265Z,99.99
2018-09-29T00:58:18.242Z,99.99
2018-09-29T00:59:18.222Z,99.99
2018-09-29T01:00:18.230Z,99.99
2018-09-29T01:01:18.220Z,99.99
2018-09-29T01:02:18.235Z,99.99
2018-09-29T01:03:18.206Z,99.99
2018-09-29T01:04:18.194Z,99.99
2018-09-29T01:05:18.208Z,99.99
2018-09-29T01:06:18.200Z,99.99
2018-09-29T01:07:18.216Z,99.99
2018-09-29T01:08:18.200Z,99.99
2018-09-29T01:09:18.189Z,99.99
2018-09-29T01:10:18.187Z,99.99
2018-09-29T01:11:18.168Z,99.99
2018-09-29T01:12:21.475Z,99.99
2018-09-29T01:13:18.154Z,99.99
2018-09-29T01:14:18.143Z,99.99
2018-09-29T01:15:18.156Z,99.99
2018-09-29T01:16:18.149Z,99.99
2018-09-29T01:17:18.160Z,99.99
2018-09-29T01:18:18.124Z,99.99
2018-09-29T01:19:18.117Z,99.99
2018-09-29T01:20:18.123Z,99.99
2018-09-29T01:21:18.120Z,99.99
2018-09-29T01:22:18.148Z,99.99
2018-09-29T01:23:18.101Z,99.99
2018-09-29T01:24:18.108Z,99.99
2018-09-29T01:25:18.106Z,99.99
2018-09-29T01:26:18.099Z,99.99
2018-09-29T01:27:18.114Z,99.99
2018-09-29T01:28:18.074Z,99.99
2018-09-29T01:29:18.069Z,99.99
2018-09-29T01:30:18.067Z,99.99
2018-09-29T01:31:18.078Z,99.99
2018-09-29T01:32:18.064Z,99.99
2018-09-29T01:33:18.081Z,99.99
2018-09-29T01:34:18.055Z,99.99
2018-09-29T01:35:18.031Z,99.99
2018-09-29T01:36:18.054Z,99.99
2018-09-29T01:37:18.043Z,99.99
2018-09-29T01:38:18.079Z,99.99
2018-09-29T01:39:18.063Z,99.99
2018-09-29T01:40:18.017Z,99.99
2018-09-29T01:41:18.020Z,99.99
2018-09-29T01:42:18.018Z,99.99
2018-09-29T01:43:18.012Z,99.99
2018-09-29T01:44:18.030Z,99.99
2018-09-29T01:45:17.988Z,99.99
2018-09-29T01:46:17.984Z,99.99
2018-09-29T01:47:17.988Z,99.99
2018-09-29T01:48:17.966Z,99.99
2018-09-29T01:49:17.989Z,99.99
2018-09-29T01:50:17.980Z,99.99
2018-09-29T01:51:17.955Z,99.99
2018-09-29T01:52:17.952Z,99.99
2018-09-29T01:53:17.946Z,99.99
2018-09-29T01:54:17.962Z,99.99
2018-09-29T01:55:17.974Z,99.99
2018-09-29T01:56:17.934Z,99.99
2018-09-29T01:57:17.936Z,97.97
2018-09-29T01:58:17.925Z,97.68
2018-09-29T01:59:17.946Z,98.54
2018-09-29T02:00:17.905Z,97.68
2018-09-29T02:01:17.904Z,97.68
2018-09-29T02:02:17.889Z,98.06
2018-09-29T02:03:17.892Z,98.25
2018-09-29T02:04:17.943Z,98.44
2018-09-29T02:05:17.875Z,98.01
2018-09-29T02:06:17.877Z,97.54
2018-09-29T02:07:17.873Z,97.35
2018-09-29T02:08:17.884Z,96.12
2018-09-29T02:09:17.885Z,95.74
2018-09-29T02:10:17.863Z,94.93
2018-09-29T02:11:17.864Z,95.31
2018-09-29T02:12:17.857Z,94.74
2018-09-29T02:13:18.472Z,94.74
2018-09-29T02:14:17.878Z,94.93
2018-09-29T02:15:17.861Z,95.98
2018-09-29T02:16:17.826Z,90.95
2018-09-29T02:17:17.835Z,92.00
2018-09-29T02:18:17.815Z,92.57
2018-09-29T02:19:17.850Z,94.56
2018-09-29T02:20:17.834Z,94.37
2018-09-29T02:21:17.801Z,95.41
2018-09-29T02:22:17.817Z,95.41
2018-09-29T02:23:17.819Z,95.31
2018-09-29T02:24:17.842Z,96.45
2018-09-29T02:25:17.787Z,96.64
2018-09-29T02:26:17.808Z,95.22
2018-09-29T02:27:17.768Z,96.64
2018-09-29T02:28:17.778Z,99.01
2018-09-29T02:29:17.797Z,98.82
2018-09-29T02:30:17.755Z,98.44
2018-09-29T02:31:17.756Z,97.40
2018-09-29T02:32:17.746Z,98.25
2018-09-29T02:33:17.753Z,96.26
2018-09-29T02:34:17.767Z,93.80
2018-09-29T02:35:17.743Z,93.51
2018-09-29T02:36:17.719Z,96.26
2018-09-29T02:37:17.725Z,97.11
2018-09-29T02:38:17.714Z,97.40
2018-09-29T02:39:17.745Z,95.98
2018-09-29T02:40:17.698Z,96.02
2018-09-29T02:41:17.697Z,95.83
2018-09-29T02:42:17.691Z,96.59
2018-09-29T02:43:17.678Z,96.02
2018-09-29T02:44:17.727Z,94.89
2018-09-29T02:45:17.673Z,92.99
2018-09-29T02:46:17.686Z,90.91
2018-09-29T02:47:17.674Z,90.25
2018-09-29T02:48:17.653Z,89.30
2018-09-29T02:49:17.694Z,87.31
2018-09-29T02:50:17.652Z,87.31
2018-09-29T02:51:17.665Z,86.55
2018-09-29T02:52:17.636Z,85.51
2018-09-29T02:53:17.637Z,86.27
2018-09-29T02:54:17.674Z,87.78
2018-09-29T02:55:17.628Z,87.31
2018-09-29T02:56:17.630Z,87.21
2018-09-29T02:57:17.602Z,86.93
2018-09-29T02:58:17.658Z,86.55
2018-09-29T02:59:17.619Z,84.66
2018-09-29T03:00:17.580Z,82.29
2018-09-29T03:01:17.596Z,81.63
2018-09-29T03:02:17.616Z,81.92
2018-09-29T03:03:17.567Z,79.45
2018-09-29T03:04:17.610Z,78.79
2018-09-29T03:05:17.566Z,79.64
2018-09-29T03:06:17.554Z,81.25
2018-09-29T03:07:17.631Z,80.30
2018-09-29T03:08:17.582Z,80.40
2018-09-29T03:09:17.558Z,81.15
2018-09-29T03:10:17.531Z,81.15
2018-09-29T03:11:17.549Z,82.86
2018-09-29T03:12:17.533Z,83.81
2018-09-29T03:13:19.535Z,84.38
2018-09-29T03:14:17.526Z,84.47
2018-09-29T03:15:17.517Z,84.38
2018-09-29T03:16:17.515Z,80.77
2018-09-29T03:17:17.487Z,81.06
2018-09-29T03:18:17.508Z,81.44
2018-09-29T03:19:17.581Z,81.63
2018-09-29T03:20:17.482Z,82.01
2018-09-29T03:21:17.470Z,81.82
2018-09-29T03:22:17.499Z,80.49
2018-09-29T03:23:17.533Z,78.50
2018-09-29T03:24:17.458Z,77.65
2018-09-29T03:25:17.439Z,77.37
2018-09-29T03:26:17.448Z,78.03
2018-09-29T03:27:17.449Z,78.88
2018-09-29T03:28:17.458Z,78.79
2018-09-29T03:29:17.440Z,78.03
2018-09-29T03:30:17.423Z,76.32
2018-09-29T03:31:17.399Z,76.23
2018-09-29T03:32:17.392Z,76.42
2018-09-29T03:33:17.418Z,76.42
2018-09-29T03:34:17.414Z,75.00
2018-09-29T03:35:17.391Z,71.88
2018-09-29T03:36:17.371Z,71.97
2018-09-29T03:37:17.395Z,71.40
2018-09-29T03:38:17.400Z,71.78
2018-09-29T03:39:17.345Z,72.44
2018-09-29T03:40:17.376Z,71.31
2018-09-29T03:41:17.352Z,71.40
2018-09-29T03:42:17.346Z,70.55
2018-09-29T03:43:17.362Z,69.32
2018-09-29T03:44:17.339Z,69.00
2018-09-29T03:45:17.375Z,69.47
2018-09-29T03:46:17.299Z,71.74
2018-09-29T03:47:17.810Z,69.85
2018-09-29T03:48:17.343Z,68.33
2018-09-29T03:49:17.323Z,67.39
2018-09-29T03:50:17.317Z,64.55
2018-09-29T03:51:17.317Z,61.43
2018-09-29T03:52:17.283Z,61.43
2018-09-29T03:53:17.263Z,61.99
2018-09-29T03:54:17.331Z,61.33
2018-09-29T03:55:17.271Z,61.43
2018-09-29T03:56:17.258Z,62.28
2018-09-29T03:57:17.252Z,61.15
2018-09-29T03:58:17.250Z,60.58
2018-09-29T03:59:17.258Z,62.66
2018-09-29T04:00:17.238Z,63.42
2018-09-29T04:01:17.228Z,63.13
2018-09-29T04:02:17.209Z,63.60
2018-09-29T04:03:17.240Z,63.60
2018-09-29T04:04:17.214Z,62.56
2018-09-29T04:05:17.181Z,60.19
2018-09-29T04:06:17.244Z,59.16
2018-09-29T04:07:17.203Z,57.17
2018-09-29T04:08:17.214Z,56.70
2018-09-29T04:09:17.190Z,57.07
2018-09-29T04:10:17.176Z,53.19
2018-09-29T04:11:17.190Z,51.39
2018-09-29T04:12:17.183Z,48.93
2018-09-29T04:13:17.175Z,46.28
2018-09-29T04:14:17.161Z,42.97
2018-09-29T04:15:17.141Z,39.94
2018-09-29T04:16:17.139Z,38.14
2018-09-29T04:17:17.156Z,39.75
2018-09-29T04:18:17.144Z,39.84
2018-09-29T04:19:17.126Z,40.41
2018-09-29T04:20:17.106Z,40.89
2018-09-29T04:21:17.100Z,40.32
2018-09-29T04:22:17.099Z,39.37
2018-09-29T04:23:17.135Z,39.18
2018-09-29T04:24:17.092Z,40.79
2018-09-29T04:25:17.090Z,41.55
2018-09-29T04:26:17.076Z,42.40
2018-09-29T04:27:17.093Z,43.07
2018-09-29T04:28:17.089Z,39.75
2018-09-29T04:29:17.047Z,37.38
2018-09-29T04:30:17.059Z,35.68
2018-09-29T04:31:17.054Z,36.63
2018-09-29T04:32:17.066Z,35.39
2018-09-29T04:33:17.058Z,34.45
2018-09-29T04:34:17.044Z,33.79
2018-09-29T04:35:17.016Z,35.49
2018-09-29T04:36:16.985Z,37.29
2018-09-29T04:37:16.993Z,37.76
2018-09-29T04:38:17.020Z,36.15
2018-09-29T04:39:17.013Z,35.77
2018-09-29T04:40:16.981Z,36.06
2018-09-29T04:41:16.981Z,36.15
2018-09-29T04:42:16.977Z,36.44
2018-09-29T04:43:17.079Z,36.44
2018-09-29T04:44:16.951Z,36.15
2018-09-29T04:45:16.945Z,35.96
2018-09-29T04:46:16.954Z,34.92
2018-09-29T04:47:16.956Z,34.83
2018-09-29T04:48:16.977Z,34.74
2018-09-29T04:49:17.036Z,35.11
2018-09-29T04:50:16.923Z,34.92
2018-09-29T04:51:16.900Z,34.83
2018-09-29T04:52:16.911Z,33.69
2018-09-29T04:53:16.913Z,29.34
2018-09-29T04:54:37.921Z,23.00
2018-09-29T04:55:16.908Z,17.50
2018-09-29T04:56:16.911Z,15.61
2018-09-29T04:57:16.880Z,15.71
2018-09-29T04:58:16.898Z,16.66
2018-09-29T04:59:16.909Z,18.74
2018-09-29T05:00:16.919Z,20.53
2018-09-29T05:01:16.854Z,21.95
2018-09-29T05:02:16.846Z,21.95
2018-09-29T05:03:16.860Z,20.72
2018-09-29T05:04:16.856Z,17.97
2018-09-29T05:05:16.828Z,15.89
2018-09-29T05:06:16.815Z,16.36
2018-09-29T05:07:16.800Z,15.80
2018-09-29T05:08:16.820Z,16.27
2018-09-29T05:09:16.819Z,16.93
2018-09-29T05:10:16.798Z,17.41
2018-09-29T05:11:16.764Z,16.65
2018-09-29T05:12:16.768Z,16.27
2018-09-29T05:13:16.775Z,14.47
2018-09-29T05:14:16.792Z,14.09
2018-09-29T05:15:37.917Z,14.57
2018-09-29T05:16:16.745Z,14.00
2018-09-29T05:17:16.754Z,12.58
2018-09-29T05:18:16.784Z,12.77
2018-09-29T05:19:16.764Z,12.87
2018-09-29T05:20:16.763Z,13.06
2018-09-29T05:21:16.718Z,10.50
2018-09-29T05:22:16.740Z,7.67
2018-09-29T05:23:16.766Z,5.11
2018-09-29T05:24:16.760Z,4.82
2018-09-29T05:25:16.704Z,5.77
2018-09-29T05:26:16.689Z,7.00
2018-09-29T05:27:16.723Z,8.23
2018-09-29T05:28:16.710Z,9.37
2018-09-29T05:29:16.647Z,10.22
2018-09-29T05:30:16.662Z,8.99
2018-09-29T05:31:16.650Z,7.95
2018-09-29T05:32:16.665Z,8.89
2018-09-29T05:33:16.670Z,6.91
2018-09-29T05:34:16.637Z,7.10
2018-09-29T05:35:16.647Z,7.48
2018-09-29T05:36:44.482Z,9.27
2018-09-29T05:37:16.641Z,10.97
2018-09-29T05:38:16.635Z,12.12
2018-09-29T05:39:16.618Z,12.87
2018-09-29T05:40:16.595Z,12.02
2018-09-29T05:41:16.589Z,12.21
2018-09-29T05:42:16.635Z,12.21
2018-09-29T05:43:16.620Z,11.83
2018-09-29T05:44:16.584Z,10.41
2018-09-29T05:45:16.589Z,8.99
2018-09-29T05:46:16.557Z,9.27
2018-09-29T05:47:16.551Z,10.13
2018-09-29T05:48:16.626Z,9.27
2018-09-29T05:49:16.554Z,12.68
2018-09-29T05:50:16.552Z,15.80
2018-09-29T05:51:16.523Z,18.84
2018-09-29T05:52:16.532Z,21.67
2018-09-29T05:53:16.551Z,24.13
2018-09-29T05:54:16.514Z,25.74
2018-09-29T05:55:16.495Z,24.32
2018-09-29T05:56:17.303Z,24.04
2018-09-29T05:57:42.436Z,22.63
2018-09-29T05:58:16.504Z,22.72
2018-09-29T05:59:16.490Z,21.50
2018-09-29T06:00:16.602Z,22.63
2018-09-29T06:01:16.462Z,24.43
2018-09-29T06:02:16.479Z,27.94
2018-09-29T06:03:16.470Z,33.52
2018-09-29T06:04:16.436Z,37.40
2018-09-29T06:05:16.463Z,40.44
2018-09-29T06:06:16.435Z,43.18
2018-09-29T06:07:16.512Z,45.55
2018-09-29T06:08:16.466Z,48.10
2018-09-29T06:09:16.457Z,50.19
2018-09-29T06:10:16.414Z,51.42
2018-09-29T06:11:16.406Z,51.89
2018-09-29T06:12:16.405Z,51.54
2018-09-29T06:13:16.471Z,49.65
2018-09-29T06:14:16.413Z,51.54
2018-09-29T06:15:16.387Z,51.73
2018-09-29T06:16:16.394Z,58.01
2018-09-29T06:17:16.369Z,70.84
2018-09-29T06:18:37.545Z,83.46
2018-09-29T06:19:16.410Z,98.40
2018-09-29T06:20:16.391Z,99.99
2018-09-29T06:21:16.398Z,99.99
2018-09-29T06:22:16.363Z,99.99
2018-09-29T06:23:16.361Z,99.99
2018-09-29T06:24:16.366Z,99.99
2018-09-29T06:25:16.329Z,99.99
2018-09-29T06:26:16.344Z,99.99
2018-09-29T06:27:16.375Z,99.99
2018-09-29T06:28:16.380Z,99.99
2018-09-29T06:29:16.351Z,99.99
2018-09-29T06:30:16.315Z,99.99
2018-09-29T06:31:16.307Z,99.99
2018-09-29T06:32:16.314Z,99.99
2018-09-29T06:33:16.296Z,99.99
2018-09-29T06:34:16.420Z,99.99
2018-09-29T06:35:16.327Z,99.99
2018-09-29T06:36:16.290Z,99.99
2018-09-29T06:37:16.283Z,99.99
2018-09-29T06:38:16.320Z,99.99
2018-09-29T06:39:19.554Z,99.99
2018-09-29T06:40:16.294Z,99.99
2018-09-29T06:41:16.274Z,99.99
2018-09-29T06:42:16.283Z,99.99
2018-09-29T06:43:16.278Z,99.99
2018-09-29T06:44:16.285Z,99.99
2018-09-29T06:45:16.284Z,99.99
2018-09-29T06:46:16.300Z,99.99
2018-09-29T06:47:16.269Z,99.99
2018-09-29T06:48:16.247Z,99.99
2018-09-29T06:49:16.283Z,99.99
2018-09-29T06:50:16.256Z,99.99
2018-09-29T06:51:16.269Z,99.99
2018-09-29T06:52:16.257Z,99.99
2018-09-29T06:53:16.273Z,99.99
2018-09-29T06:54:16.290Z,99.99
2018-09-29T06:55:16.266Z,99.99
2018-09-29T06:56:16.292Z,99.99
2018-09-29T06:57:16.270Z,99.99
2018-09-29T06:58:16.245Z,99.99
2018-09-29T06:59:16.276Z,99.99
2018-09-29T07:00:16.293Z,99.99
2018-09-29T07:01:16.257Z,99.99
2018-09-29T07:02:16.250Z,99.99
2018-09-29T07:03:16.246Z,99.99
2018-09-29T07:04:16.244Z,99.99
2018-09-29T07:05:16.296Z,99.99
2018-09-29T07:06:16.236Z,99.99
2018-09-29T07:07:16.246Z,99.99
2018-09-29T07:08:16.259Z,99.99
2018-09-29T07:09:16.261Z,99.99
2018-09-29T07:10:16.324Z,99.99
2018-09-29T07:11:16.276Z,99.99
2018-09-29T07:12:16.266Z,99.99
2018-09-29T07:13:16.266Z,99.99
2018-09-29T07:14:16.253Z,99.99
2018-09-29T07:15:16.281Z,99.99
2018-09-29T07:16:16.280Z,99.99
2018-09-29T07:17:16.248Z,99.99
2018-09-29T07:18:16.260Z,99.99
2018-09-29T07:19:16.280Z,99.99
2018-09-29T07:20:16.253Z,99.99
2018-09-29T07:21:16.301Z,99.99
2018-09-29T07:22:16.260Z,99.99
2018-09-29T07:23:16.267Z,99.99
2018-09-29T07:24:16.262Z,99.99
2018-09-29T07:25:16.294Z,99.99
2018-09-29T07:26:16.327Z,99.99
2018-09-29T07:27:16.309Z,99.99
2018-09-29T07:28:16.293Z,99.99
2018-09-29T07:29:16.278Z,99.38
2018-09-29T07:30:16.280Z,99.99
2018-09-29T07:31:16.428Z,99.99
2018-09-29T07:32:16.310Z,99.99
2018-09-29T07:33:16.297Z,99.99
2018-09-29T07:34:16.298Z,99.99
2018-09-29T07:35:16.274Z,98.85
2018-09-29T07:36:16.388Z,98.66
2018-09-29T07:37:16.289Z,97.47
2018-09-29T07:38:16.304Z,99.19
2018-09-29T07:39:37.376Z,92.97
2018-09-29T07:40:16.302Z,94.70
2018-09-29T07:41:16.359Z,97.13
2018-09-29T07:42:16.306Z,99.99
2018-09-29T07:43:16.369Z,98.71
2018-09-29T07:44:16.388Z,99.99
2018-09-29T07:45:16.324Z,99.52
2018-09-29T07:46:16.358Z,99.52
2018-09-29T07:47:16.342Z,99.99
2018-09-29T07:48:16.320Z,97.90
2018-09-29T07:49:16.397Z,99.48
2018-09-29T07:50:16.375Z,92.97
2018-09-29T07:51:16.391Z,92.97
2018-09-29T07:52:16.380Z,91.49
2018-09-29T07:53:16.383Z,86.28
2018-09-29T07:54:16.350Z,91.63
2018-09-29T07:55:16.357Z,89.43
2018-09-29T07:56:16.434Z,93.84
2018-09-29T07:57:16.371Z,91.06
2018-09-29T07:58:16.433Z,94.36
2018-09-29T07:59:16.364Z,98.14
2018-09-29T08:00:18.945Z,94.17
2018-09-29T08:01:16.492Z,90.63
2018-09-29T08:02:16.395Z,91.77
2018-09-29T08:03:16.398Z,89.04
2018-09-29T08:04:16.399Z,88.80
2018-09-29T08:05:16.435Z,88.51
2018-09-29T08:06:16.508Z,90.23
2018-09-29T08:07:16.418Z,85.21
2018-09-29T08:08:16.467Z,82.48
2018-09-29T08:09:16.449Z,83.05
2018-09-29T08:10:16.444Z,84.17
2018-09-29T08:11:16.469Z,90.58
2018-09-29T08:16:12.561Z,98.47
2018-09-29T08:17:12.531Z,97.80
2018-09-29T08:18:12.539Z,98.85
2018-09-29T08:19:12.549Z,99.99
2018-09-29T08:20:12.560Z,93.12
2018-09-29T08:21:12.590Z,91.73
2018-09-29T08:22:12.574Z,93.30
2018-09-29T08:23:12.578Z,91.77
2018-09-29T08:24:12.639Z,88.28
2018-09-29T08:25:12.603Z,88.18
2018-09-29T08:26:12.625Z,87.33
2018-09-29T08:27:12.610Z,90.06
2018-09-29T08:28:12.621Z,93.02
2018-09-29T08:29:12.618Z,93.84
2018-09-29T08:30:12.629Z,97.37
2018-09-29T08:31:12.667Z,99.62
2018-09-29T08:32:12.673Z,98.09
2018-09-29T08:33:12.663Z,92.49
2018-09-29T08:34:12.661Z,87.46
2018-09-29T08:35:12.674Z,82.42
2018-09-29T08:36:12.760Z,82.67
2018-09-29T08:37:12.687Z,86.84
2018-09-29T08:38:12.697Z,83.97
2018-09-29T08:39:12.709Z,87.03
2018-09-29T08:40:12.717Z,87.80
2018-09-29T08:41:12.750Z,84.11
2018-09-29T08:42:12.733Z,83.82
2018-09-29T08:43:12.744Z,84.01
2018-09-29T08:44:12.756Z,84.95
2018-09-29T08:45:12.764Z,82.09
2018-09-29T08:46:12.843Z,86.13
2018-09-29T08:47:12.786Z,89.67
2018-09-29T08:48:12.792Z,88.43
2018-09-29T08:49:12.801Z,87.62
2018-09-29T08:50:12.819Z,89.39
2018-09-29T08:51:12.851Z,91.16
2018-09-29T08:52:12.838Z,94.79
2018-09-29T08:53:12.897Z,98.23
2018-09-29T08:54:12.860Z,97.89
2018-09-29T08:55:12.857Z,95.79
2018-09-29T08:56:14.521Z,96.99
2018-09-29T08:57:12.876Z,97.23
2018-09-29T08:58:12.887Z,94.41
2018-09-29T08:59:12.897Z,91.15
2018-09-29T09:00:12.906Z,87.23
2018-09-29T09:01:12.948Z,89.62
2018-09-29T09:02:12.929Z,91.35
2018-09-29T09:03:12.940Z,94.46
2018-09-29T09:04:12.956Z,99.99
2018-09-29T09:05:12.966Z,98.57
2018-09-29T09:06:13.008Z,97.52
2018-09-29T09:07:13.001Z,92.92
2018-09-29T09:08:13.008Z,88.80
2018-09-29T09:09:13.028Z,85.30
2018-09-29T09:10:13.018Z,82.81
2018-09-29T09:11:13.064Z,85.13
2018-09-29T09:12:13.042Z,90.16
2018-09-29T09:13:13.062Z,94.89
2018-09-29T09:14:13.055Z,96.66
2018-09-29T09:15:13.069Z,95.89
2018-09-29T09:16:13.114Z,96.51
2018-09-29T09:17:13.210Z,96.32
2018-09-29T09:18:13.108Z,96.56
2018-09-29T09:19:13.118Z,93.84
2018-09-29T09:20:13.140Z,90.39
2018-09-29T09:21:13.190Z,91.74
2018-09-29T09:22:13.184Z,94.79
2018-09-29T09:23:13.204Z,93.84
2018-09-29T09:24:13.209Z,92.16
2018-09-29T09:25:13.219Z,92.21
2018-09-29T09:26:13.247Z,91.78
2018-09-29T09:27:13.231Z,92.35
2018-09-29T09:28:13.213Z,90.96
2018-09-29T09:29:13.232Z,88.57
2018-09-29T09:30:13.338Z,91.21
2018-09-29T09:31:13.280Z,93.70
2018-09-29T09:32:13.276Z,97.27
2018-09-29T09:33:13.289Z,98.18
2018-09-29T09:34:13.292Z,97.71
2018-09-29T09:35:13.305Z,97.23
2018-09-29T09:36:13.349Z,94.41
2018-09-29T09:37:13.332Z,94.74
2018-09-29T09:38:13.341Z,94.51
2018-09-29T09:39:13.352Z,94.74
2018-09-29T09:40:13.381Z,95.07
2018-09-29T09:41:13.430Z,93.84
2018-09-29T09:42:13.392Z,94.93
2018-09-29T09:43:13.395Z,91.92
2018-09-29T09:44:13.421Z,90.63
2018-09-29T09:45:13.425Z,91.25
2018-09-29T09:46:13.473Z,89.87
2018-09-29T09:47:13.446Z,91.68
2018-09-29T09:48:13.458Z,93.21
2018-09-29T09:49:13.493Z,94.79
2018-09-29T09:50:13.493Z,95.65
2018-09-29T09:51:13.535Z,92.83
2018-09-29T09:52:13.517Z,92.54
2018-09-29T09:53:13.539Z,93.79
2018-09-29T09:54:13.586Z,92.16
2018-09-29T09:55:13.542Z,91.68
2018-09-29T09:56:13.590Z,92.07
2018-09-29T09:57:13.575Z,90.82
2018-09-29T09:58:13.668Z,90.24
2018-09-29T09:59:13.610Z,89.62
2018-09-29T10:00:13.616Z,90.16
2018-09-29T10:01:13.663Z,90.30
2018-09-29T10:02:13.638Z,89.81
2018-09-29T10:03:14.481Z,90.20
2018-09-29T10:04:13.660Z,90.05
2018-09-29T10:05:13.672Z,86.84
2018-09-29T10:06:13.710Z,86.65
2018-09-29T10:07:13.721Z,86.93
2018-09-29T10:08:13.707Z,83.82
2018-09-29T10:09:13.724Z,84.50
2018-09-29T10:10:13.734Z,86.08
2018-09-29T10:11:13.792Z,86.80
2018-09-29T10:12:13.767Z,88.48
2018-09-29T10:13:13.769Z,88.56
2018-09-29T10:14:13.792Z,85.98
2018-09-29T10:15:13.811Z,83.92
2018-09-29T10:16:13.842Z,85.02
2018-09-29T10:17:13.865Z,84.31
2018-09-29T10:18:13.839Z,87.14
2018-09-29T10:19:13.876Z,87.03
2018-09-29T10:20:13.870Z,85.25
2018-09-29T10:21:13.918Z,83.93
2018-09-29T10:22:13.911Z,85.13
2018-09-29T10:23:13.915Z,83.45
2018-09-29T10:24:13.934Z,82.09
2018-09-29T10:25:13.946Z,80.33
2018-09-29T10:26:13.987Z,79.03
2018-09-29T10:27:13.968Z,76.07
2018-09-29T10:28:13.979Z,71.70
2018-09-29T10:29:13.998Z,70.90
2018-09-29T10:30:14.011Z,73.28
2018-09-29T10:31:14.071Z,76.54
2018-09-29T10:32:14.043Z,76.89
2018-09-29T10:33:14.056Z,76.27
2018-09-29T10:34:14.069Z,75.70
2018-09-29T10:35:14.092Z,77.23
2018-09-29T10:36:14.188Z,76.12
2018-09-29T10:37:14.127Z,75.27
2018-09-29T10:38:14.121Z,76.48
2018-09-29T10:39:14.164Z,77.69
2018-09-29T10:40:14.151Z,79.08
2018-09-29T10:41:14.229Z,80.88
2018-09-29T10:42:14.185Z,79.20
2018-09-29T10:43:14.223Z,74.99
2018-09-29T10:44:14.276Z,76.18
2018-09-29T10:45:14.674Z,75.31
2018-09-29T10:46:14.439Z,72.90
2018-09-29T10:47:14.672Z,70.92
2018-09-29T10:48:14.362Z,70.38
2018-09-29T10:49:14.356Z,69.97
2018-09-29T10:50:14.474Z,69.04
2018-09-29T10:51:14.350Z,71.40
2018-09-29T10:52:14.345Z,72.45
2018-09-29T10:53:14.355Z,72.03
2018-09-29T10:54:14.362Z,71.40
2018-09-29T10:55:14.403Z,72.03
2018-09-29T10:56:14.420Z,71.88
2018-09-29T10:57:14.408Z,71.57
2018-09-29T10:58:14.454Z,70.41
2018-09-29T10:59:14.506Z,73.09
2018-09-29T11:00:14.428Z,72.84
2018-09-29T11:01:14.499Z,72.45
2018-09-29T11:02:14.465Z,71.50
2018-09-29T11:03:14.507Z,73.15
2018-09-29T11:04:14.481Z,75.93
2018-09-29T11:05:14.536Z,76.60
2018-09-29T11:06:14.574Z,77.75
2018-09-29T11:07:14.537Z,77.55
2018-09-29T11:08:14.561Z,76.31
2018-09-29T11:09:14.567Z,75.37
2018-09-29T11:10:14.603Z,75.22
2018-09-29T11:11:14.622Z,76.08
2018-09-29T11:12:14.629Z,75.22
2018-09-29T11:13:14.621Z,79.33
2018-09-29T11:14:14.655Z,78.87
2018-09-29T11:15:14.646Z,82.70
2018-09-29T11:16:14.696Z,82.45
2018-09-29T11:17:14.680Z,81.92
2018-09-29T11:18:14.706Z,80.56
2018-09-29T11:19:14.718Z,79.60
2018-09-29T11:20:14.687Z,79.52
2018-09-29T11:21:14.762Z,79.20
2018-09-29T11:22:14.740Z,81.84
2018-09-29T11:23:14.767Z,82.22
2018-09-29T11:24:14.729Z,82.89
2018-09-29T11:25:14.760Z,83.69
2018-09-29T11:26:14.830Z,80.81
2018-09-29T11:27:14.785Z,73.91
2018-09-29T11:28:14.879Z,73.32
2018-09-29T11:29:14.803Z,71.44
2018-09-29T11:30:14.829Z,70.26
2018-09-29T11:31:14.839Z,68.47
2018-09-29T11:32:14.844Z,67.93
2018-09-29T11:33:14.868Z,67.47
2018-09-29T11:34:14.859Z,71.16
2018-09-29T11:35:35.869Z,73.23
2018-09-29T11:36:14.858Z,77.11
2018-09-29T11:37:14.869Z,78.05
2018-09-29T11:38:14.911Z,74.74
2018-09-29T11:39:14.963Z,75.60
2018-09-29T11:40:14.962Z,76.56
2018-09-29T11:41:14.969Z,74.05
2018-09-29T11:42:14.942Z,73.65
2018-09-29T11:43:14.979Z,70.67
2018-09-29T11:44:14.985Z,70.38
2018-09-29T11:45:15.036Z,68.91
2018-09-29T11:46:15.017Z,70.00
2018-09-29T11:47:15.025Z,69.46
2018-09-29T11:48:15.044Z,69.74
2018-09-29T11:49:15.058Z,69.07
2018-09-29T11:50:15.093Z,68.33
2018-09-29T11:51:15.090Z,67.47
2018-09-29T11:52:15.076Z,69.35
2018-09-29T11:53:15.076Z,70.79
2018-09-29T11:54:15.108Z,70.53
2018-09-29T11:55:15.146Z,70.97
2018-09-29T11:56:15.196Z,71.03
2018-09-29T11:57:15.164Z,72.31
2018-09-29T11:58:16.152Z,72.94
2018-09-29T11:59:15.350Z,72.69
2018-09-29T12:00:15.183Z,72.00
2018-09-29T12:01:15.245Z,70.09
2018-09-29T12:02:15.263Z,68.49
2018-09-29T12:03:15.369Z,66.74
2018-09-29T12:04:17.043Z,63.70
2018-09-29T12:05:15.288Z,62.33
2018-09-29T12:06:15.349Z,62.49
2018-09-29T12:07:15.317Z,62.49
2018-09-29T12:08:15.344Z,63.67
2018-09-29T12:09:15.488Z,64.28
2018-09-29T12:10:15.423Z,64.28
2018-09-29T12:11:15.328Z,65.84
2018-09-29T12:12:15.343Z,67.60
2018-09-29T12:13:15.727Z,67.66
2018-09-29T12:14:15.378Z,67.47
2018-09-29T12:15:15.634Z,67.72
2018-09-29T12:16:15.397Z,67.54
2018-09-29T12:17:15.458Z,68.55
2018-09-29T12:18:15.452Z,67.82
2018-09-29T12:19:15.482Z,67.98
2018-09-29T12:20:15.495Z,68.46
2018-09-29T12:21:16.925Z,69.15
2018-09-29T12:22:15.533Z,70.21
2018-09-29T12:23:15.718Z,70.81
2018-09-29T12:24:15.523Z,67.88
2018-09-29T12:25:15.602Z,67.09
2018-09-29T12:26:15.576Z,66.32
2018-09-29T12:27:15.576Z,66.67
2018-09-29T12:28:15.620Z,67.69
2018-09-29T12:29:15.599Z,67.50
2018-09-29T12:30:15.646Z,67.79
2018-09-29T12:31:15.659Z,68.52
2018-09-29T12:32:15.648Z,70.24
2018-09-29T12:33:15.705Z,67.79
2018-09-29T12:34:15.693Z,68.62
2018-09-29T12:35:15.704Z,67.21
2018-09-29T12:36:15.730Z,67.82
2018-09-29T12:37:15.876Z,70.59
2018-09-29T12:38:15.712Z,69.25
2018-09-29T12:39:15.746Z,70.24
2018-09-29T12:40:15.793Z,70.01
2018-09-29T12:41:15.813Z,71.07
2018-09-29T12:42:15.767Z,70.94
2018-09-29T12:43:15.780Z,73.04
2018-09-29T12:44:15.904Z,72.92
2018-09-29T12:45:15.903Z,69.95
2018-09-29T12:46:16.199Z,67.60
2018-09-29T12:47:15.849Z,65.84
2018-09-29T12:48:15.886Z,66.76
2018-09-29T12:49:15.906Z,68.01
2018-09-29T12:50:15.989Z,66.80
2018-09-29T12:51:16.013Z,65.88
2018-09-29T12:52:16.008Z,66.22
2018-09-29T12:53:15.926Z,68.68
2018-09-29T12:54:15.925Z,70.34
2018-09-29T12:55:15.955Z,70.24
2018-09-29T12:56:15.994Z,71.26
2018-09-29T12:57:15.989Z,69.89
2018-09-29T12:58:15.995Z,67.98
2018-09-29T12:59:16.009Z,67.47